Time;durP1;ratioP1;P1;durP2;ratioP2;P2;SDS_P1;SDS_P2;PMS_P1;PMS_P2;Temp;Humidity;BMP_temperature;BMP_pressure;BME280_temperature;BME280_humidity;BME280_pressure;Samples;Min_cycle;Max_cycle;Signal;HPM_P1;HPM_P2
2021/11/26 00:02:18;;;;;;;15.60;10.50;;;;;;;2.51;78.12;99204.42;1826680;77;21631;-67
2021/11/26 00:04:46;;;;;;;16.70;11.45;;;;;;;2.49;78.22;99193.11;1835422;77;21046;-67
2021/11/26 00:07:12;;;;;;;13.00;9.55;;;;;;;2.43;78.29;99191.36;1825477;77;20971;-67
2021/11/26 00:09:39;;;;;;;15.75;10.40;;;;;;;2.42;78.29;99189.72;1825387;77;21530;-67
2021/11/26 00:12:07;;;;;;;12.73;9.93;;;;;;;2.42;78.35;99174.94;1833807;77;21005;-67
2021/11/26 00:14:34;;;;;;;16.52;10.58;;;;;;;2.41;78.44;99171.95;1822924;77;21027;-67
2021/11/26 00:17:03;;;;;;;13.93;10.48;;;;;;;2.38;78.62;99169.73;1838253;77;20966;-67
2021/11/26 00:19:31;;;;;;;15.60;10.95;;;;;;;2.34;78.88;99162.36;1829299;77;21597;-67
2021/11/26 00:21:58;;;;;;;14.23;10.13;;;;;;;2.34;78.88;99165.05;1829375;77;21472;-67
2021/11/26 00:24:24;;;;;;;16.23;10.78;;;;;;;2.35;78.83;99154.61;1829876;77;20991;-67
2021/11/26 00:26:51;;;;;;;13.98;10.53;;;;;;;2.33;78.92;99166.95;1827831;77;21019;-67
2021/11/26 00:29:18;;;;;;;17.32;10.72;;;;;;;2.32;78.89;99180.08;1819803;77;21514;-67
2021/11/26 00:31:45;;;;;;;15.58;10.82;;;;;;;2.28;78.98;99180.77;1819685;78;21047;-67
2021/11/26 00:34:12;;;;;;;14.45;10.45;;;;;;;2.24;79.13;99172.34;1823546;77;21022;-67
2021/11/26 00:36:39;;;;;;;18.00;10.90;;;;;;;2.26;79.22;99164.08;1825563;77;21111;-67
2021/11/26 00:39:05;;;;;;;;;;;;;;;2.26;79.35;99151.47;1832907;77;21506;-66
2021/11/26 00:41:31;;;;;;;13.35;10.18;;;;;;;2.28;79.30;99157.93;1836022;77;20131;-66
2021/11/26 00:43:58;;;;;;;14.90;11.33;;;;;;;2.21;79.44;99156.70;1817938;77;21019;-67
2021/11/26 00:46:24;;;;;;;14.30;10.28;;;;;;;2.16;79.63;99161.14;1837536;77;21016;-67
2021/11/26 00:48:52;;;;;;;16.90;11.48;;;;;;;2.19;79.80;99157.47;1819222;77;21036;-67
2021/11/26 00:51:19;;;;;;;16.75;11.00;;;;;;;2.21;79.77;99143.27;1820011;79;21621;-67
2021/11/26 00:53:45;;;;;;;14.90;10.10;;;;;;;2.23;79.66;99143.84;1822472;77;21468;-67
2021/11/26 00:56:12;;;;;;;16.27;11.57;;;;;;;2.25;79.53;99132.89;1844253;77;21096;-67
2021/11/26 00:58:38;;;;;;;15.93;10.78;;;;;;;2.23;79.55;99129.63;1839141;77;21011;-68
2021/11/26 01:01:05;;;;;;;17.17;11.22;;;;;;;2.16;79.63;99128.38;1822559;77;21079;-67
2021/11/26 01:03:32;;;;;;;;;;;;;;;2.12;79.63;99129.91;1822255;79;21055;-67
2021/11/26 01:05:58;;;;;;;14.70;10.78;;;;;;;2.10;79.54;99127.97;1821973;77;20137;-67
2021/11/26 01:08:25;;;;;;;18.48;12.05;;;;;;;2.06;79.55;99124.10;1822296;77;21109;-67
2021/11/26 01:10:51;;;;;;;14.95;10.20;;;;;;;2.04;79.62;99116.00;1821813;77;21043;-67
2021/11/26 01:13:18;;;;;;;15.78;10.88;;;;;;;2.00;79.86;99107.06;1823915;77;20954;-67
2021/11/26 01:15:44;;;;;;;16.75;11.55;;;;;;;1.95;80.18;99107.45;1825597;77;21027;-67
2021/11/26 01:18:11;;;;;;;18.23;11.20;;;;;;;1.98;80.51;99111.83;1847884;77;21023;-67
2021/11/26 01:20:37;;;;;;;13.98;10.20;;;;;;;2.02;80.55;99105.48;1822371;77;21528;-67
2021/11/26 01:23:04;;;;;;;;;;;;;;;2.06;80.55;99105.83;1832524;77;21019;-67
2021/11/26 01:25:31;;;;;;;14.53;10.03;;;;;;;2.08;80.52;99099.20;1819019;77;20133;-67
2021/11/26 01:27:58;;;;;;;17.30;11.40;;;;;;;2.04;80.65;99093.17;1819631;77;21031;-67
2021/11/26 01:30:29;;;;;;;16.52;12.30;;;;;;;2.06;80.63;99105.31;1819373;77;21034;-67
2021/11/26 01:32:59;;;;;;;16.30;11.25;;;;;;;2.02;80.75;99099.31;1847487;77;21504;-67
2021/11/26 01:35:26;;;;;;;13.40;10.40;;;;;;;2.01;80.79;99103.86;1843925;77;21017;-67
2021/11/26 01:37:52;;;;;;;16.65;10.72;;;;;;;2.03;80.62;99101.75;1812771;77;20984;-68
2021/11/26 01:40:19;;;;;;;14.95;10.28;;;;;;;2.05;80.63;99099.67;1819262;77;21043;-68
2021/11/26 01:42:46;;;;;;;;;;;;;;;2.06;80.69;99105.31;1821946;77;20956;-67
2021/11/26 01:45:12;;;;;;;14.27;10.37;;;;;;;2.08;80.58;99098.38;1829264;77;20436;-67
2021/11/26 01:47:41;;;;;;;15.72;11.12;;;;;;;1.99;80.72;99097.38;1835272;77;21182;-68
2021/11/26 01:50:10;;;;;;;15.20;11.15;;;;;;;1.95;80.81;99098.05;1804933;79;21082;-67
2021/11/26 01:52:38;;;;;;;16.48;11.43;;;;;;;1.96;80.95;99104.55;1823520;77;20976;-68
2021/11/26 01:55:05;;;;;;;;;;;;;;;2.00;80.93;99102.22;1840280;77;21025;-67
2021/11/26 01:57:31;;;;;;;17.15;11.55;;;;;;;2.02;80.78;99093.39;1822674;77;20382;-68
2021/11/26 01:59:58;;;;;;;;;;;;;;;1.99;80.86;99096.55;1827755;77;21521;-68
2021/11/26 02:02:24;;;;;;;15.28;11.48;;;;;;;2.00;80.85;99095.51;1822599;77;20424;-68
2021/11/26 02:04:52;;;;;;;15.70;11.53;;;;;;;1.92;81.08;99083.24;1819091;79;21031;-67
2021/11/26 02:07:18;;;;;;;17.27;11.43;;;;;;;1.91;81.24;99090.20;1823601;77;21029;-67
2021/11/26 02:09:46;;;;;;;17.60;11.75;;;;;;;1.94;81.16;99087.87;1824863;77;21057;-67
2021/11/26 02:12:12;;;;;;;16.75;11.15;;;;;;;1.98;80.97;99084.98;1830496;77;21006;-68
2021/11/26 02:14:39;;;;;;;15.70;11.63;;;;;;;1.99;80.91;99075.08;1822933;78;21723;-67
2021/11/26 02:17:05;;;;;;;16.07;11.95;;;;;;;1.97;80.90;99086.06;1829416;77;21529;-68
2021/11/26 02:19:33;;;;;;;13.95;10.65;;;;;;;1.98;80.85;99087.67;1793652;80;21072;-67
2021/11/26 02:22:00;;;;;;;;;;;;;;;1.97;80.81;99080.69;1800677;78;21076;-67
2021/11/26 02:24:26;;;;;;;16.50;10.98;;;;;;;1.96;80.78;99079.56;1829395;77;20125;-67
2021/11/26 02:30:43;;;;;;;17.45;11.85;;;;;;;1.81;81.06;99069.80;1782027;79;22895;-68
2021/11/26 02:33:14;;;;;;;15.15;11.48;;;;;;;1.71;81.26;99072.23;1739018;82;21558;-68
2021/11/26 02:35:41;;;;;;;15.85;11.95;;;;;;;1.74;81.31;99077.13;1748087;80;21545;-67
2021/11/26 02:38:10;;;;;;;15.55;11.97;;;;;;;1.72;81.35;99066.66;1746874;82;21058;-68
2021/11/26 02:40:40;;;;;;;16.87;12.23;;;;;;;1.74;81.35;99067.74;1748245;80;21608;-68
2021/11/26 02:43:08;;;;;;;17.52;11.70;;;;;;;1.74;81.36;99059.69;1746855;82;21030;-68
2021/11/26 02:45:35;;;;;;;15.70;11.10;;;;;;;1.73;81.43;99066.95;1745213;80;21683;-68
2021/11/26 02:48:02;;;;;;;16.35;11.50;;;;;;;1.75;81.41;99066.19;1741557;82;20995;-69
2021/11/26 02:50:28;;;;;;;;;;;;;;;1.75;81.42;99067.53;1732317;82;21675;-68
2021/11/26 02:52:55;;;;;;;16.40;11.15;;;;;;;1.75;81.39;99066.19;1744536;82;20452;-68
2021/11/26 02:55:24;;;;;;;16.00;11.97;;;;;;;1.69;81.55;99058.25;1728831;82;21413;-68
2021/11/26 02:57:51;;;;;;;18.00;11.83;;;;;;;1.67;81.66;99058.98;1732415;82;21003;-68
2021/11/26 03:00:22;;;;;;;17.12;12.33;;;;;;;1.63;81.67;99043.87;1725286;82;21072;-68
2021/11/26 03:02:48;;;;;;;17.07;11.63;;;;;;;1.60;81.67;99045.67;1721416;83;20998;-68
2021/11/26 03:05:16;;;;;;;14.70;11.63;;;;;;;1.58;81.67;99055.84;1736549;80;21078;-68
2021/11/26 03:07:43;;;;;;;17.12;12.15;;;;;;;1.55;81.69;99058.98;1732950;82;20979;-69
2021/11/26 03:10:13;;;;;;;16.32;12.30;;;;;;;1.55;81.70;99060.84;1724844;82;21042;-68
2021/11/26 03:12:39;;;;;;;15.70;11.33;;;;;;;1.57;81.72;99054.71;1746523;82;20990;-68
2021/11/26 03:15:06;;;;;;;15.28;11.45;;;;;;;1.54;81.71;99042.58;1724623;82;21514;-68
2021/11/26 03:17:33;;;;;;;16.82;12.58;;;;;;;1.59;81.70;99038.70;1735065;82;21443;-68
2021/11/26 03:20:00;;;;;;;18.20;11.75;;;;;;;1.59;81.75;99046.75;1735377;82;21047;-68
2021/11/26 03:22:26;;;;;;;15.32;11.48;;;;;;;1.58;81.73;99045.63;1739142;82;21048;-68
2021/11/26 03:24:53;;;;;;;17.27;12.50;;;;;;;1.53;81.81;99042.28;1747714;80;21118;-68
2021/11/26 03:27:19;;;;;;;16.45;11.70;;;;;;;1.49;81.93;99043.27;1745161;82;21053;-68
2021/11/26 03:29:46;;;;;;;17.80;12.75;;;;;;;1.50;81.96;99043.56;1741951;81;21063;-68
2021/11/26 03:32:12;;;;;;;17.17;12.05;;;;;;;1.52;81.94;99039.84;1725417;82;21568;-68
2021/11/26 03:34:39;;;;;;;16.95;12.33;;;;;;;1.53;81.94;99038.78;1731112;82;21517;-68
2021/11/26 03:37:05;;;;;;;15.38;11.73;;;;;;;1.54;81.92;99050.63;1735441;82;21019;-68
2021/11/26 03:39:33;;;;;;;17.85;13.43;;;;;;;1.57;81.89;99053.37;1725300;82;21114;-68
2021/11/26 03:42:00;;;;;;;17.90;13.20;;;;;;;1.55;81.94;99052.80;1724645;82;21526;-68
2021/11/26 03:44:26;;;;;;;15.68;11.70;;;;;;;1.53;82.01;99051.67;1731007;82;21008;-68
2021/11/26 03:46:52;;;;;;;17.42;12.60;;;;;;;1.55;81.95;99051.45;1725297;82;21117;-68
2021/11/26 03:49:19;;;;;;;16.15;11.33;;;;;;;1.56;81.88;99047.73;1732575;82;21219;-68
2021/11/26 03:51:45;;;;;;;16.65;11.93;;;;;;;1.58;81.82;99045.63;1731567;82;21067;-68
2021/11/26 03:54:12;;;;;;;18.73;13.05;;;;;;;1.56;81.85;99045.05;1732343;82;21066;-68
2021/11/26 03:56:38;;;;;;;18.05;12.88;;;;;;;1.52;81.96;99042.53;1728749;81;21090;-68
2021/11/26 03:59:06;;;;;;;16.37;11.95;;;;;;;1.52;81.99;99049.23;1735051;82;21046;-68
2021/11/26 04:01:34;;;;;;;16.48;12.63;;;;;;;1.55;81.90;99050.11;1732242;81;21134;-68
2021/11/26 04:04:01;;;;;;;;;;;;;;;1.56;81.88;99042.36;1721232;82;21119;-68
2021/11/26 04:06:27;;;;;;;17.05;12.07;;;;;;;1.57;81.81;99039.44;1729093;82;20107;-68
2021/11/26 04:08:54;;;;;;;17.40;12.33;;;;;;;1.47;82.00;99040.53;1730310;82;21014;-68
2021/11/26 04:11:22;;;;;;;16.93;12.93;;;;;;;1.45;82.07;99038.61;1724844;82;21071;-68
2021/11/26 04:13:50;;;;;;;18.67;12.30;;;;;;;1.45;81.98;99034.03;1729206;82;21479;-68
2021/11/26 04:16:17;;;;;;;15.05;12.03;;;;;;;1.46;81.89;99029.50;1737121;81;21579;-68
2021/11/26 04:18:45;;;;;;;16.23;11.88;;;;;;;1.46;81.79;99025.47;1729967;82;21594;-69
2021/11/26 04:21:13;;;;;;;16.90;12.35;;;;;;;1.42;81.79;99035.84;1728108;82;21094;-68
2021/11/26 04:23:40;;;;;;;16.60;12.15;;;;;;;1.37;81.85;99035.73;1728690;82;21032;-68
2021/11/26 04:26:06;;;;;;;19.25;12.85;;;;;;;1.33;81.90;99033.20;1731646;82;21032;-68
2021/11/26 04:28:33;;;;;;;20.02;14.07;;;;;;;1.32;81.85;99030.23;1730464;82;21003;-68
2021/11/26 04:31:01;;;;;;;18.80;12.85;;;;;;;1.34;81.81;99034.03;1732812;82;20999;-68
2021/11/26 04:33:28;;;;;;;16.95;12.23;;;;;;;1.30;81.73;99028.31;1739888;82;21059;-68
2021/11/26 04:35:54;;;;;;;17.73;12.68;;;;;;;1.24;81.79;99029.75;1742256;81;21510;-68
2021/11/26 04:38:20;;;;;;;15.63;12.10;;;;;;;1.18;81.97;99042.70;1737952;82;21557;-68
2021/11/26 04:40:47;;;;;;;19.67;12.90;;;;;;;1.16;82.01;99048.83;1737483;82;21071;-68
2021/11/26 04:43:13;;;;;;;19.17;12.53;;;;;;;1.15;81.94;99038.63;1737042;82;21014;-68
2021/11/26 04:45:40;;;;;;;;;;;;;;;1.14;81.88;99031.63;1744493;81;21653;-68
2021/11/26 04:48:06;;;;;;;17.62;12.68;;;;;;;1.11;81.85;99026.72;1741565;82;20129;-68
2021/11/26 04:50:33;;;;;;;17.57;11.83;;;;;;;1.03;81.94;99033.73;1733569;82;21609;-68
2021/11/26 04:53:00;;;;;;;16.50;12.58;;;;;;;0.94;82.15;99034.59;1733503;82;21019;-68
2021/11/26 04:55:26;;;;;;;19.42;13.13;;;;;;;0.91;82.34;99042.27;1737029;82;21047;-68
2021/11/26 04:57:53;;;;;;;17.50;12.37;;;;;;;0.92;82.30;99049.27;1733498;82;21039;-68
2021/11/26 05:00:20;;;;;;;16.10;12.00;;;;;;;0.92;82.23;99043.36;1740402;81;21023;-67
2021/11/26 05:02:48;;;;;;;15.90;11.63;;;;;;;0.93;82.17;99040.98;1738983;82;21102;-68
2021/11/26 05:05:15;;;;;;;16.75;11.78;;;;;;;0.92;82.13;99038.00;1736574;82;21107;-68
2021/11/26 05:07:41;;;;;;;18.15;12.35;;;;;;;0.88;82.19;99033.34;1742494;82;21023;-68
2021/11/26 05:10:09;;;;;;;17.30;12.50;;;;;;;0.81;82.33;99028.59;1738782;82;21103;-68
2021/11/26 05:12:44;;;;;;;19.57;12.93;;;;;;;0.79;82.47;99036.84;1730891;82;21900;-68
2021/11/26 05:15:06;;;;;;;19.32;11.85;;;;;;;0.78;82.48;99032.52;1736475;81;21066;-68
2021/11/26 05:17:35;;;;;;;16.27;11.85;;;;;;;0.79;82.42;99040.86;1744210;82;21063;-68
2021/11/26 05:20:01;;;;;;;16.77;11.78;;;;;;;0.80;82.36;99042.50;1740389;81;21070;-68
2021/11/26 05:22:28;;;;;;;17.55;13.43;;;;;;;0.78;82.43;99040.55;1739006;82;21086;-68
2021/11/26 05:24:54;;;;;;;17.48;12.43;;;;;;;0.77;82.64;99033.58;1741396;81;21125;-68
2021/11/26 05:27:22;;;;;;;18.25;12.40;;;;;;;0.76;82.74;99021.73;1735761;82;21915;-67
2021/11/26 05:29:48;;;;;;;17.55;12.37;;;;;;;0.77;82.86;99024.20;1733230;82;21221;-68
2021/11/26 05:32:15;;;;;;;15.00;11.00;;;;;;;0.78;82.86;99019.67;1745202;82;21010;-68
2021/11/26 05:34:41;;;;;;;16.10;12.20;;;;;;;0.78;82.80;99022.34;1731329;82;21058;-68
2021/11/26 05:37:07;;;;;;;17.20;11.75;;;;;;;0.77;82.76;99022.05;1731064;83;21042;-68
2021/11/26 05:39:34;;;;;;;18.37;12.95;;;;;;;0.73;82.82;99028.89;1731117;83;21026;-68
2021/11/26 05:42:00;;;;;;;16.25;12.13;;;;;;;0.69;82.95;99024.50;1732098;82;20983;-68
2021/11/26 05:44:27;;;;;;;16.80;11.95;;;;;;;0.71;83.00;99011.69;1732167;82;21054;-67
2021/11/26 05:46:53;;;;;;;16.35;11.88;;;;;;;0.73;82.91;99013.64;1730783;82;21393;-68
2021/11/26 05:49:19;;;;;;;15.30;10.80;;;;;;;0.76;82.92;99016.38;1731734;82;21026;-68
2021/11/26 05:51:46;;;;;;;15.85;12.00;;;;;;;0.75;82.98;99016.90;1730411;82;21078;-67
2021/11/26 05:54:12;;;;;;;16.37;12.75;;;;;;;0.73;83.12;99023.02;1730811;83;21534;-68
2021/11/26 05:56:39;;;;;;;16.32;12.13;;;;;;;0.71;83.32;99013.03;1731048;83;21475;-67
2021/11/26 05:59:06;;;;;;;16.67;11.78;;;;;;;0.76;83.30;99011.02;1742886;82;21078;-68
2021/11/26 06:01:32;;;;;;;17.20;12.50;;;;;;;0.79;83.28;99018.60;1731557;81;21070;-68
2021/11/26 06:03:59;;;;;;;16.05;11.97;;;;;;;0.83;83.30;99022.47;1740184;81;21024;-68
2021/11/26 06:06:25;;;;;;;17.17;12.58;;;;;;;0.82;83.42;99016.29;1726587;81;21583;-69
2021/11/26 06:08:51;;;;;;;16.35;12.28;;;;;;;0.83;83.59;99017.94;1728019;81;21540;-68
2021/11/26 06:11:18;;;;;;;15.68;11.48;;;;;;;0.87;83.55;99012.42;1718239;81;21062;-69
2021/11/26 06:13:44;;;;;;;17.30;12.13;;;;;;;0.93;83.50;99018.20;1721613;83;21036;-69
2021/11/26 06:16:11;;;;;;;19.23;12.10;;;;;;;0.92;83.49;99007.73;1726034;81;21046;-69
2021/11/26 06:18:39;;;;;;;18.00;11.80;;;;;;;1.01;83.48;99026.45;1724354;81;21482;-69
2021/11/26 06:21:05;;;;;;;17.92;10.50;;;;;;;1.05;83.47;99030.84;1705332;81;21093;-69
2021/11/26 06:23:33;;;;;;;18.30;11.90;;;;;;;1.06;83.45;99028.46;1725551;83;21071;-68
2021/11/26 06:26:00;;;;;;;18.73;12.05;;;;;;;1.07;83.52;99041.62;1730928;82;21039;-69
2021/11/26 06:28:27;;;;;;;20.88;11.53;;;;;;;1.13;83.49;99037.23;1730517;82;21648;-69
2021/11/26 06:30:53;;;;;;;;;;;;;;;1.17;83.42;99032.50;1733100;83;21082;-69
2021/11/26 06:33:20;;;;;;;17.23;11.83;;;;;;;1.22;83.41;99035.84;1739464;82;20134;-68
2021/11/26 06:35:46;;;;;;;16.60;12.07;;;;;;;1.22;83.49;99042.03;1732642;82;21034;-69
2021/11/26 06:38:13;;;;;;;;;;;;;;;1.27;83.49;99035.99;1739904;82;21655;-70
2021/11/26 06:40:39;;;;;;;15.68;11.25;;;;;;;1.35;83.50;99039.15;1736775;82;20422;-68
2021/11/26 06:43:07;;;;;;;16.80;11.05;;;;;;;1.41;83.63;99030.73;1736669;81;21007;-68
2021/11/26 06:45:34;;;;;;;14.40;11.18;;;;;;;1.55;83.56;99029.47;1727174;81;21643;-70
2021/11/26 06:48:00;;;;;;;14.73;11.03;;;;;;;1.68;83.42;99030.59;1730463;81;21076;-70
2021/11/26 06:50:27;;;;;;;15.32;10.68;;;;;;;1.83;83.17;99028.80;1728011;81;21092;-69
2021/11/26 06:52:53;;;;;;;14.55;9.85;;;;;;;2.00;82.99;99033.25;1728596;81;21020;-70
2021/11/26 06:55:21;;;;;;;14.60;10.55;;;;;;;2.17;82.70;99038.72;1715703;81;21052;-70
2021/11/26 06:57:49;;;;;;;13.90;10.65;;;;;;;2.29;82.37;99037.38;1724626;81;20986;-70
2021/11/26 07:00:16;;;;;;;;;;;;;;;2.43;82.12;99033.39;1730413;81;21059;-70
2021/11/26 07:02:45;;;;;;;16.17;9.68;;;;;;;2.55;81.85;99034.16;1728879;81;20170;-69
2021/11/26 07:05:11;;;;;;;14.80;10.25;;;;;;;2.63;81.71;99019.55;1734223;82;21047;-69
2021/11/26 07:07:37;;;;;;;12.37;9.93;;;;;;;2.76;81.40;99022.81;1736361;82;21007;-70
2021/11/26 07:10:06;;;;;;;13.05;10.00;;;;;;;2.81;80.94;99020.20;1729701;81;21082;-70
2021/11/26 07:12:33;;;;;;;14.85;9.75;;;;;;;2.87;80.72;99018.45;1731700;82;21030;-70
2021/11/26 07:14:59;;;;;;;;;;;;;;;3.04;80.55;99023.34;1740044;82;21148;-71
2021/11/26 07:17:25;;;;;;;13.05;9.78;;;;;;;3.24;80.21;99030.96;1731758;82;20182;-70
2021/11/26 07:19:52;;;;;;;13.88;9.55;;;;;;;3.36;79.96;99035.77;1727220;81;21643;-70
2021/11/26 07:22:19;;;;;;;;;;;;;;;3.57;79.56;99030.20;1742563;81;21018;-73
2021/11/26 07:24:46;;;;;;;11.93;9.88;;;;;;;3.80;79.32;99026.00;1729042;81;20148;-70
2021/11/26 07:27:13;;;;;;;12.75;10.18;;;;;;;3.94;79.04;99023.26;1730918;82;21031;-71
2021/11/26 07:29:40;;;;;;;11.95;9.60;;;;;;;4.11;78.40;99026.75;1729103;81;20994;-70
2021/11/26 07:32:07;;;;;;;11.83;9.65;;;;;;;4.25;77.85;99023.98;1719981;82;21015;-70
2021/11/26 07:34:34;;;;;;;12.43;9.35;;;;;;;4.43;77.56;99012.11;1714231;82;21008;-71
2021/11/26 07:37:00;;;;;;;11.78;9.65;;;;;;;4.58;76.70;99015.53;1706722;83;21027;-70
2021/11/26 07:39:35;;;;;;;10.78;8.55;;;;;;;4.67;75.95;99016.22;1723483;82;21012;-70
2021/11/26 07:42:03;;;;;;;13.15;8.83;;;;;;;4.65;75.18;99007.55;1739400;82;21011;-70
2021/11/26 07:44:31;;;;;;;10.98;9.00;;;;;;;4.67;74.89;99011.36;1723204;81;21007;-71
2021/11/26 07:46:58;;;;;;;12.00;8.13;;;;;;;4.71;74.40;99011.14;1719325;82;21047;-70
2021/11/26 07:49:25;;;;;;;10.05;8.20;;;;;;;4.82;74.08;99015.56;1717121;82;21565;-71
2021/11/26 07:51:52;;;;;;;11.53;9.00;;;;;;;4.85;73.76;99015.08;1719803;82;21541;-71
2021/11/26 07:54:18;;;;;;;12.13;9.08;;;;;;;4.81;73.37;99021.52;1717261;82;21023;-70
2021/11/26 07:56:45;;;;;;;14.60;9.85;;;;;;;4.73;73.12;99027.34;1717109;82;21106;-70
2021/11/26 07:59:12;;;;;;;11.70;9.30;;;;;;;4.67;72.98;99026.19;1703229;83;21051;-72
2021/11/26 08:01:38;;;;;;;9.58;7.97;;;;;;;4.67;73.09;99028.88;1717309;82;20984;-70
2021/11/26 08:04:05;;;;;;;;;;;;;;;4.75;73.30;99033.81;1715102;82;21668;-70
2021/11/26 08:06:31;;;;;;;11.33;8.93;;;;;;;4.78;73.13;99037.38;1714740;81;20103;-70
2021/11/26 08:08:58;;;;;;;11.78;8.68;;;;;;;4.74;73.31;99038.41;1722743;82;21038;-69
2021/11/26 08:11:24;;;;;;;13.68;8.65;;;;;;;4.80;73.29;99039.28;1730767;81;21066;-70
2021/11/26 08:13:51;;;;;;;10.23;8.38;;;;;;;4.96;73.36;99038.38;1717785;82;21006;-70
2021/11/26 08:16:18;;;;;;;13.35;9.15;;;;;;;5.13;72.56;99037.80;1699514;83;21058;-70
2021/11/26 08:18:46;;;;;;;10.55;8.48;;;;;;;5.27;72.43;99040.91;1718435;82;21015;-70
2021/11/26 08:21:12;;;;;;;9.45;7.95;;;;;;;5.45;72.29;99040.55;1718309;81;21045;-69
2021/11/26 08:23:39;;;;;;;12.85;9.45;;;;;;;5.61;72.10;99030.16;1713469;83;21030;-69
2021/11/26 08:26:07;;;;;;;11.25;8.60;;;;;;;5.70;71.11;99025.12;1720347;81;21581;-68
2021/11/26 08:28:34;;;;;;;10.63;8.78;;;;;;;5.81;70.70;99026.84;1698529;83;21038;-70
2021/11/26 08:31:00;;;;;;;10.63;7.78;;;;;;;5.98;70.10;99020.78;1736528;81;21690;-69
2021/11/26 08:33:28;;;;;;;11.15;7.92;;;;;;;6.03;69.40;99023.50;1729859;82;20995;-69
2021/11/26 08:35:55;;;;;;;10.25;8.23;;;;;;;5.93;68.90;99013.45;1728423;82;21091;-69
2021/11/26 08:38:21;;;;;;;;;;;;;;;5.83;68.85;99017.92;1737436;82;21050;-69
2021/11/26 08:40:48;;;;;;;11.10;8.45;;;;;;;5.76;69.01;99009.23;1730352;81;20102;-69
2021/11/26 08:43:14;;;;;;;;;;;;;;;5.67;69.34;99007.52;1730798;82;20983;-69
2021/11/26 08:45:41;;;;;;;10.35;8.33;;;;;;;5.77;69.51;99002.23;1729804;82;20111;-68
2021/11/26 08:48:07;;;;;;;9.48;7.95;;;;;;;5.97;69.96;98997.53;1719748;81;21394;-69
2021/11/26 08:50:34;;;;;;;10.48;8.03;;;;;;;6.20;69.23;98997.70;1693621;83;21065;-69
2021/11/26 08:53:05;;;;;;;10.88;8.50;;;;;;;6.37;68.71;98991.57;1678940;84;20995;-69
2021/11/26 08:55:35;;;;;;;9.95;8.03;;;;;;;6.54;67.89;98993.55;1692329;84;21170;-69
2021/11/26 08:58:02;;;;;;;23.47;15.88;;;;;;;6.56;67.05;98977.86;1698037;84;21012;-69
2021/11/26 09:00:32;;;;;;;13.05;9.60;;;;;;;6.56;66.67;98967.58;1667151;85;21071;-70
2021/11/26 09:03:00;;;;;;;12.88;8.88;;;;;;;6.57;66.37;98962.45;1674404;85;20976;-69
2021/11/26 09:05:27;;;;;;;10.15;8.40;;;;;;;6.47;65.72;98968.64;1671784;85;21114;-70
2021/11/26 09:08:00;;;;;;;10.45;8.60;;;;;;;6.41;65.86;98965.64;1696329;84;21543;-69
2021/11/26 09:10:23;;;;;;;14.53;10.82;;;;;;;6.35;65.70;98958.03;1683099;84;21120;-69
2021/11/26 09:12:49;;;;;;;16.42;13.28;;;;;;;6.24;65.72;98952.83;1671652;85;21023;-69
2021/11/26 09:15:15;;;;;;;11.55;9.43;;;;;;;6.04;65.75;98954.89;1678205;85;21888;-69
2021/11/26 09:17:42;;;;;;;12.10;8.65;;;;;;;5.88;66.27;98940.46;1678093;85;21522;-70
2021/11/26 09:20:09;;;;;;;;;;;;;;;5.89;67.06;98927.77;1663039;85;21080;-69
2021/11/26 09:22:36;;;;;;;10.20;8.15;;;;;;;6.00;67.23;98919.48;1671661;85;20422;-69
2021/11/26 09:25:05;;;;;;;10.50;7.90;;;;;;;6.23;67.45;98918.80;1689874;84;21715;-69
2021/11/26 09:27:33;;;;;;;9.53;7.80;;;;;;;6.49;66.89;98914.56;1695850;84;20998;-69
2021/11/26 09:29:59;;;;;;;9.85;7.65;;;;;;;6.69;66.41;98926.00;1689843;83;21030;-69
2021/11/26 09:32:27;;;;;;;10.68;7.95;;;;;;;6.87;65.98;98921.43;1673802;85;21007;-69
2021/11/26 09:34:54;;;;;;;9.43;8.20;;;;;;;7.06;65.29;98913.63;1660988;86;21056;-69
2021/11/26 09:37:20;;;;;;;9.63;7.58;;;;;;;7.08;64.40;98914.19;1674931;85;21035;-69
2021/11/26 09:39:48;;;;;;;9.73;8.10;;;;;;;7.00;64.28;98912.00;1689766;84;21189;-69
2021/11/26 09:42:15;;;;;;;10.32;8.25;;;;;;;6.97;64.39;98909.84;1694470;84;21039;-69
2021/11/26 09:44:44;;;;;;;9.10;6.58;;;;;;;7.07;64.43;98907.14;1701978;83;21019;-69
2021/11/26 09:47:10;;;;;;;9.38;6.83;;;;;;;7.21;64.37;98897.41;1736833;82;21026;-70
2021/11/26 09:49:36;;;;;;;8.95;7.03;;;;;;;7.32;63.85;98890.92;1715695;81;21022;-69
2021/11/26 09:52:03;;;;;;;;;;;;;;;7.26;63.25;98885.21;1689725;85;21085;-69
2021/11/26 09:54:42;;;;;;;12.03;7.05;;;;;;;7.16;63.23;98896.58;1673897;85;20146;-69
2021/11/26 09:57:09;;;;;;;9.45;7.67;;;;;;;6.95;63.51;98883.57;1725855;82;21151;-68
2021/11/26 09:59:39;;;;;;;11.78;7.62;;;;;;;6.79;63.74;98898.16;1725513;82;21039;-68
2021/11/26 10:02:11;;;;;;;9.23;7.10;;;;;;;6.74;63.98;98892.73;1735014;82;21596;-68
2021/11/26 10:04:38;;;;;;;9.38;7.33;;;;;;;6.67;64.16;98882.17;1710924;83;21486;-68
2021/11/26 10:07:06;;;;;;;9.45;7.35;;;;;;;6.59;64.27;98873.22;1720185;82;21471;-69
2021/11/26 10:09:36;;;;;;;8.88;7.10;;;;;;;6.52;64.33;98868.59;1730400;82;21055;-68
2021/11/26 10:12:10;;;;;;;10.68;7.12;;;;;;;6.43;64.55;98857.51;1666974;85;21096;-68
2021/11/26 10:14:41;;;;;;;12.40;7.53;;;;;;;6.27;64.78;98866.63;1689491;85;21434;-68
2021/11/26 10:17:16;;;;;;;9.88;7.50;;;;;;;6.03;65.23;98871.39;1689869;84;21596;-68
2021/11/26 10:19:47;;;;;;;8.88;7.12;;;;;;;5.86;65.77;98874.28;1715920;82;20967;-68
2021/11/26 10:22:24;;;;;;;9.33;7.25;;;;;;;5.86;66.31;98879.69;1740770;82;21039;-68
2021/11/26 10:25:06;;;;;;;9.33;6.35;;;;;;;5.94;66.29;98876.49;1727696;82;21102;-68
2021/11/26 10:27:54;;;;;;;9.48;6.47;;;;;;;5.95;66.37;98868.11;1726647;82;21100;-68
2021/11/26 10:30:33;;;;;;;11.45;6.92;;;;;;;5.93;66.58;98867.57;1731899;82;21035;-68
2021/11/26 10:33:04;;;;;;;8.78;7.03;;;;;;;5.91;66.73;98856.77;1730866;82;21081;-68
2021/11/26 10:35:37;;;;;;;9.30;6.72;;;;;;;5.91;66.90;98859.47;1709092;82;21070;-67
2021/11/26 10:38:23;;;;;;;9.68;6.65;;;;;;;6.07;67.12;98860.33;1729692;82;21564;-69
2021/11/26 10:40:53;;;;;;;8.43;6.17;;;;;;;6.23;66.70;98860.69;1739479;81;21664;-69
2021/11/26 10:43:33;;;;;;;12.73;7.22;;;;;;;6.36;66.27;98858.83;1730216;82;21517;-69
2021/11/26 10:59:27;;;;;;;9.10;7.25;;;;;;;6.95;64.78;98838.92;1815485;79;22956;-67
2021/11/26 11:01:56;;;;;;;9.20;6.87;;;;;;;6.99;64.63;98839.48;1681134;85;21080;-67
2021/11/26 11:04:25;;;;;;;9.18;7.03;;;;;;;7.09;64.26;98844.61;1697269;84;21059;-67
2021/11/26 11:07:08;;;;;;;10.23;7.62;;;;;;;7.15;64.11;98836.78;1712255;83;21026;-67
2021/11/26 11:09:48;;;;;;;9.55;7.35;;;;;;;7.18;63.94;98835.70;1684215;84;20999;-67
2021/11/26 11:12:15;;;;;;;9.45;7.15;;;;;;;7.19;63.75;98827.83;1702586;84;21046;-67
2021/11/26 11:14:46;;;;;;;;;;;;;;;7.23;64.03;98835.67;1716158;83;21003;-69
2021/11/26 11:17:12;;;;;;;8.90;7.58;;;;;;;7.24;63.52;98831.08;1706736;83;20109;-69
2021/11/26 11:19:40;;;;;;;9.45;7.28;;;;;;;7.18;63.78;98828.11;1690592;83;21080;-69
2021/11/26 11:22:07;;;;;;;9.70;7.40;;;;;;;7.24;63.83;98835.14;1665627;86;21096;-69
2021/11/26 11:24:34;;;;;;;;;;;;;;;7.35;63.58;98836.22;1710121;84;21046;-70
2021/11/26 11:27:00;;;;;;;8.48;5.70;;;;;;;7.40;62.99;98824.02;1702554;84;20118;-69
2021/11/26 11:29:27;;;;;;;8.25;6.35;;;;;;;7.31;62.94;98823.49;1712634;83;21030;-69
2021/11/26 11:31:57;;;;;;;9.18;6.70;;;;;;;7.28;63.02;98818.09;1720602;83;21026;-69
2021/11/26 11:34:29;;;;;;;8.95;7.05;;;;;;;7.33;62.88;98818.64;1724375;83;21019;-69
2021/11/26 11:36:58;;;;;;;8.73;6.97;;;;;;;7.29;62.76;98803.48;1717001;83;21008;-69
2021/11/26 11:39:25;;;;;;;9.43;7.00;;;;;;;7.28;62.97;98804.55;1703849;83;21009;-69
2021/11/26 11:41:56;;;;;;;8.83;6.65;;;;;;;7.31;63.10;98805.36;1708909;83;21036;-70
2021/11/26 11:44:32;;;;;;;9.00;6.42;;;;;;;7.35;62.90;98818.63;1714927;83;21043;-69
2021/11/26 11:47:01;;;;;;;8.30;6.60;;;;;;;7.30;62.83;98818.62;1680454;85;20966;-69
2021/11/26 11:49:31;;;;;;;10.38;7.00;;;;;;;7.27;62.82;98819.16;1682156;85;20948;-70
2021/11/26 11:52:00;;;;;;;10.43;7.42;;;;;;;7.18;62.72;98811.87;1694278;84;21007;-69
2021/11/26 11:54:42;;;;;;;8.23;6.22;;;;;;;6.96;62.84;98796.73;1687981;85;21007;-69
2021/11/26 11:57:22;;;;;;;8.98;6.67;;;;;;;6.79;63.44;98790.78;1719827;83;21529;-68